Accueil
METAR-TAF:

METAR-TAF

Aéroports :

Turin, Italie

Aéroport Sandro-Pertini de Turin Caselle

latitude: 45-13N, longitude: 007-39E, altitude: 301 m

Observation

Le bulletin a été fait il y a 27 minutes, à 10:20 UTC
Vent 2 kt de direction variable
Température 10°C
Humidité 62%
Pression 1020 hPa
Visibilité: 7000 m

METAR: LIMF 221020Z VRB02KT 7000 NSC 10/03 Q1020

Heure: 11:47 (10:47 UTC)

Prévision

Le bulletin a été fait il y a 5 heures et 47 minutes, à 05:00 UTC
Prévision valable du 22 à 06 UTC au 23 à 06 UTC
Vent 5 kt de direction variable
Visibilité: 8000 m

TAF: LIMF 220500Z 2206/2306 VRB05KT 8000 NSC

Observations et prévisions météorologiques de plus de 4000 aéroports (messages METAR et TAF).

Les stations disponibles sont représentées par des disques jaunes et rouges sur la carte.

Passer la souris dessus pour voir le nom de la station.

Cliquer dessus pour voir les observations et prévisions météorologiques.

Pour changer de carte: cliquez sur les boutons verts avec une croix noire pour zoomer, sur le bouton vert avec un tiret pour effectuer un zoom arrière, ou sur les flèches vertes pour les cartes adjacentes.


METAR-TAF: